sensor_id;sensor_type;location;lat;lon;timestamp;pressure;altitude;pressure_sealevel;temperature;humidity
13867;BME280;7003;46.982;15.248;2024-03-08T00:00:04;97454.84;;;1.73;100.00
13867;BME280;7003;46.982;15.248;2024-03-08T00:02:36;97454.34;;;1.81;100.00
13867;BME280;7003;46.982;15.248;2024-03-08T00:05:07;97460.38;;;1.81;100.00
13867;BME280;7003;46.982;15.248;2024-03-08T00:07:39;97458.28;;;1.83;100.00
13867;BME280;7003;46.982;15.248;2024-03-08T00:10:08;97452.47;;;1.71;100.00
13867;BME280;7003;46.982;15.248;2024-03-08T00:12:41;97452.50;;;2.02;100.00
13867;BME280;7003;46.982;15.248;2024-03-08T00:15:09;97456.44;;;2.04;100.00
13867;BME280;7003;46.982;15.248;2024-03-08T00:17:43;97448.25;;;1.50;100.00
13867;BME280;7003;46.982;15.248;2024-03-08T00:20:11;97453.00;;;1.68;100.00
13867;BME280;7003;46.982;15.248;2024-03-08T00:22:39;97440.94;;;1.62;100.00
13867;BME280;7003;46.982;15.248;2024-03-08T00:25:07;97453.50;;;1.55;100.00
13867;BME280;7003;46.982;15.248;2024-03-08T00:27:39;97450.66;;;1.62;100.00
13867;BME280;7003;46.982;15.248;2024-03-08T00:30:09;97448.78;;;1.57;100.00
13867;BME280;7003;46.982;15.248;2024-03-08T00:32:41;97450.41;;;1.68;100.00
13867;BME280;7003;46.982;15.248;2024-03-08T00:35:09;97450.91;;;1.65;100.00
13867;BME280;7003;46.982;15.248;2024-03-08T00:37:38;97450.91;;;1.80;100.00
13867;BME280;7003;46.982;15.248;2024-03-08T00:40:06;97445.94;;;1.89;100.00
13867;BME280;7003;46.982;15.248;2024-03-08T00:42:37;97441.47;;;1.74;100.00
13867;BME280;7003;46.982;15.248;2024-03-08T00:45:10;97438.31;;;1.57;100.00
13867;BME280;7003;46.982;15.248;2024-03-08T00:47:38;97444.06;;;1.49;100.00
13867;BME280;7003;46.982;15.248;2024-03-08T00:50:09;97434.34;;;1.49;100.00
13867;BME280;7003;46.982;15.248;2024-03-08T00:52:37;97445.38;;;1.51;100.00
13867;BME280;7003;46.982;15.248;2024-03-08T00:55:05;97437.78;;;1.60;100.00
13867;BME280;7003;46.982;15.248;2024-03-08T00:57:33;97429.66;;;1.57;100.00
13867;BME280;7003;46.982;15.248;2024-03-08T01:00:03;97418.66;;;1.60;100.00
13867;BME280;7003;46.982;15.248;2024-03-08T01:02:32;97423.63;;;1.46;100.00
13867;BME280;7003;46.982;15.248;2024-03-08T01:05:04;97413.31;;;1.24;100.00
13867;BME280;7003;46.982;15.248;2024-03-08T01:07:32;97426.72;;;1.28;100.00
13867;BME280;7003;46.982;15.248;2024-03-08T01:09:59;97431.38;;;1.10;100.00
13867;BME280;7003;46.982;15.248;2024-03-08T01:12:45;97427.97;;;1.10;100.00
13867;BME280;7003;46.982;15.248;2024-03-08T01:15:12;97421.44;;;1.17;100.00
13867;BME280;7003;46.982;15.248;2024-03-08T01:17:43;97426.72;;;1.33;100.00
13867;BME280;7003;46.982;15.248;2024-03-08T01:20:14;97416.72;;;1.14;100.00
13867;BME280;7003;46.982;15.248;2024-03-08T01:22:43;97415.81;;;0.84;100.00
13867;BME280;7003;46.982;15.248;2024-03-08T01:25:11;97416.94;;;0.46;100.00
13867;BME280;7003;46.982;15.248;2024-03-08T01:27:38;97422.56;;;0.27;100.00
13867;BME280;7003;46.982;15.248;2024-03-08T01:30:08;97414.31;;;0.46;100.00
13867;BME280;7003;46.982;15.248;2024-03-08T01:32:39;97412.53;;;0.51;100.00
13867;BME280;7003;46.982;15.248;2024-03-08T01:35:07;97415.94;;;0.57;100.00
13867;BME280;7003;46.982;15.248;2024-03-08T01:37:38;97413.13;;;0.68;100.00
13867;BME280;7003;46.982;15.248;2024-03-08T01:40:06;97406.44;;;0.41;100.00
13867;BME280;7003;46.982;15.248;2024-03-08T01:42:34;97412.59;;;0.19;100.00
13867;BME280;7003;46.982;15.248;2024-03-08T01:45:04;97405.72;;;0.55;100.00
13867;BME280;7003;46.982;15.248;2024-03-08T01:47:32;97414.25;;;0.35;100.00
13867;BME280;7003;46.982;15.248;2024-03-08T01:50:02;97412.59;;;0.24;100.00
13867;BME280;7003;46.982;15.248;2024-03-08T01:52:41;97404.19;;;0.17;100.00
13867;BME280;7003;46.982;15.248;2024-03-08T01:55:11;97405.88;;;-0.04;100.00
13867;BME280;7003;46.982;15.248;2024-03-08T01:57:40;97409.31;;;0.02;100.00
13867;BME280;7003;46.982;15.248;2024-03-08T02:00:11;97402.50;;;0.01;100.00
13867;BME280;7003;46.982;15.248;2024-03-08T02:02:41;97412.03;;;-0.20;100.00
13867;BME280;7003;46.982;15.248;2024-03-08T02:05:10;97403.50;;;-0.05;100.00
13867;BME280;7003;46.982;15.248;2024-03-08T02:07:43;97408.94;;;0.20;100.00
13867;BME280;7003;46.982;15.248;2024-03-08T02:10:12;97404.09;;;0.02;100.00
13867;BME280;7003;46.982;15.248;2024-03-08T02:12:42;97401.06;;;0.15;100.00
13867;BME280;7003;46.982;15.248;2024-03-08T02:15:11;97409.38;;;-0.25;100.00
13867;BME280;7003;46.982;15.248;2024-03-08T02:17:40;97413.16;;;-0.11;100.00
13867;BME280;7003;46.982;15.248;2024-03-08T02:20:11;97409.19;;;-0.13;100.00
13867;BME280;7003;46.982;15.248;2024-03-08T02:22:43;97408.50;;;-0.04;100.00
13867;BME280;7003;46.982;15.248;2024-03-08T02:25:12;97418.47;;;-0.01;100.00
13867;BME280;7003;46.982;15.248;2024-03-08T02:27:43;97417.16;;;0.02;100.00
13867;BME280;7003;46.982;15.248;2024-03-08T02:30:10;97418.00;;;0.08;100.00
13867;BME280;7003;46.982;15.248;2024-03-08T02:32:39;97410.28;;;-0.09;100.00
13867;BME280;7003;46.982;15.248;2024-03-08T02:35:06;97407.53;;;0.08;100.00
13867;BME280;7003;46.982;15.248;2024-03-08T02:37:35;97412.25;;;0.11;100.00
13867;BME280;7003;46.982;15.248;2024-03-08T02:40:13;97406.28;;;0.15;100.00
13867;BME280;7003;46.982;15.248;2024-03-08T02:42:41;97412.81;;;0.18;100.00
13867;BME280;7003;46.982;15.248;2024-03-08T02:45:09;97417.25;;;0.17;100.00
13867;BME280;7003;46.982;15.248;2024-03-08T02:47:38;97415.41;;;0.08;100.00
13867;BME280;7003;46.982;15.248;2024-03-08T02:50:08;97415.34;;;0.03;100.00
13867;BME280;7003;46.982;15.248;2024-03-08T02:52:37;97414.88;;;0.11;100.00
13867;BME280;7003;46.982;15.248;2024-03-08T02:55:08;97414.03;;;0.00;100.00
13867;BME280;7003;46.982;15.248;2024-03-08T02:57:38;97415.63;;;0.06;100.00
13867;BME280;7003;46.982;15.248;2024-03-08T03:00:08;97411.78;;;0.14;100.00
13867;BME280;7003;46.982;15.248;2024-03-08T03:02:38;97406.66;;;-0.03;100.00
13867;BME280;7003;46.982;15.248;2024-03-08T03:05:06;97404.03;;;-0.08;100.00
13867;BME280;7003;46.982;15.248;2024-03-08T03:07:36;97406.19;;;0.00;100.00
13867;BME280;7003;46.982;15.248;2024-03-08T03:10:03;97402.97;;;-0.07;100.00
13867;BME280;7003;46.982;15.248;2024-03-08T03:12:32;97409.75;;;-0.11;100.00
13867;BME280;7003;46.982;15.248;2024-03-08T03:15:01;97408.41;;;-0.14;100.00
13867;BME280;7003;46.982;15.248;2024-03-08T03:17:30;97411.41;;;0.00;100.00
13867;BME280;7003;46.982;15.248;2024-03-08T03:19:59;97401.81;;;0.16;100.00
13867;BME280;7003;46.982;15.248;2024-03-08T03:22:29;97402.03;;;0.09;100.00
13867;BME280;7003;46.982;15.248;2024-03-08T03:24:56;97394.53;;;-0.14;100.00
13867;BME280;7003;46.982;15.248;2024-03-08T03:27:27;97395.50;;;0.07;100.00
13867;BME280;7003;46.982;15.248;2024-03-08T03:30:00;97393.59;;;-0.03;100.00
13867;BME280;7003;46.982;15.248;2024-03-08T03:32:55;97396.13;;;-0.13;100.00
13867;BME280;7003;46.982;15.248;2024-03-08T03:35:26;97399.94;;;0.06;100.00
13867;BME280;7003;46.982;15.248;2024-03-08T03:37:54;97402.00;;;0.04;100.00
13867;BME280;7003;46.982;15.248;2024-03-08T03:40:33;97405.50;;;0.15;100.00
13867;BME280;7003;46.982;15.248;2024-03-08T03:43:06;97401.56;;;0.17;100.00
13867;BME280;7003;46.982;15.248;2024-03-08T03:45:40;97394.81;;;0.21;100.00
13867;BME280;7003;46.982;15.248;2024-03-08T03:48:11;97404.94;;;0.13;100.00
13867;BME280;7003;46.982;15.248;2024-03-08T03:50:42;97397.34;;;0.06;100.00
13867;BME280;7003;46.982;15.248;2024-03-08T03:53:09;97402.59;;;0.16;100.00
13867;BME280;7003;46.982;15.248;2024-03-08T03:55:38;97402.47;;;-0.04;100.00
13867;BME280;7003;46.982;15.248;2024-03-08T03:58:05;97398.81;;;-0.08;100.00
13867;BME280;7003;46.982;15.248;2024-03-08T04:00:41;97405.19;;;0.06;100.00
13867;BME280;7003;46.982;15.248;2024-03-08T04:03:12;97402.97;;;-0.07;100.00
13867;BME280;7003;46.982;15.248;2024-03-08T04:05:40;97406.66;;;-0.08;100.00
13867;BME280;7003;46.982;15.248;2024-03-08T04:08:14;97411.59;;;-0.07;100.00
13867;BME280;7003;46.982;15.248;2024-03-08T04:10:43;97405.88;;;-0.04;100.00
13867;BME280;7003;46.982;15.248;2024-03-08T04:13:11;97409.25;;;-0.08;100.00
13867;BME280;7003;46.982;15.248;2024-03-08T04:15:38;97420.69;;;-0.14;100.00
13867;BME280;7003;46.982;15.248;2024-03-08T04:18:08;97419.19;;;-0.05;100.00
13867;BME280;7003;46.982;15.248;2024-03-08T04:20:35;97412.19;;;0.00;100.00
13867;BME280;7003;46.982;15.248;2024-03-08T04:23:05;97420.97;;;0.21;100.00
13867;BME280;7003;46.982;15.248;2024-03-08T04:25:39;97412.47;;;0.04;100.00
13867;BME280;7003;46.982;15.248;2024-03-08T04:28:11;97408.03;;;0.05;100.00
13867;BME280;7003;46.982;15.248;2024-03-08T04:30:39;97407.94;;;-0.06;100.00
13867;BME280;7003;46.982;15.248;2024-03-08T04:33:12;97407.22;;;-0.01;100.00
13867;BME280;7003;46.982;15.248;2024-03-08T04:35:43;97407.72;;;0.01;100.00
13867;BME280;7003;46.982;15.248;2024-03-08T04:38:14;97402.38;;;0.18;100.00
13867;BME280;7003;46.982;15.248;2024-03-08T04:40:41;97405.66;;;0.03;100.00
13867;BME280;7003;46.982;15.248;2024-03-08T04:43:23;97400.16;;;-0.01;100.00
13867;BME280;7003;46.982;15.248;2024-03-08T04:45:52;97407.28;;;0.09;100.00
13867;BME280;7003;46.982;15.248;2024-03-08T04:48:24;97413.28;;;0.10;100.00
13867;BME280;7003;46.982;15.248;2024-03-08T04:50:55;97400.53;;;0.18;100.00
13867;BME280;7003;46.982;15.248;2024-03-08T04:53:22;97402.19;;;0.29;100.00
13867;BME280;7003;46.982;15.248;2024-03-08T04:55:50;97404.97;;;0.18;100.00
13867;BME280;7003;46.982;15.248;2024-03-08T04:58:20;97400.56;;;0.23;100.00
13867;BME280;7003;46.982;15.248;2024-03-08T05:00:50;97400.06;;;0.26;100.00
13867;BME280;7003;46.982;15.248;2024-03-08T05:03:20;97404.06;;;0.39;100.00
13867;BME280;7003;46.982;15.248;2024-03-08T05:05:55;97407.94;;;0.31;100.00
13867;BME280;7003;46.982;15.248;2024-03-08T05:08:29;97394.34;;;0.29;100.00
13867;BME280;7003;46.982;15.248;2024-03-08T05:10:57;97405.03;;;0.23;100.00
13867;BME280;7003;46.982;15.248;2024-03-08T05:13:44;97407.06;;;0.16;100.00
13867;BME280;7003;46.982;15.248;2024-03-08T05:16:15;97407.19;;;0.31;100.00
13867;BME280;7003;46.982;15.248;2024-03-08T05:18:47;97404.72;;;0.19;100.00
13867;BME280;7003;46.982;15.248;2024-03-08T05:21:25;97399.41;;;0.04;100.00
13867;BME280;7003;46.982;15.248;2024-03-08T05:23:56;97403.38;;;-0.25;100.00
13867;BME280;7003;46.982;15.248;2024-03-08T05:26:32;97397.63;;;-0.22;100.00
13867;BME280;7003;46.982;15.248;2024-03-08T05:29:06;97407.13;;;-0.11;100.00
13867;BME280;7003;46.982;15.248;2024-03-08T05:31:46;97409.97;;;-0.18;100.00
13867;BME280;7003;46.982;15.248;2024-03-08T05:34:17;97406.88;;;-0.10;100.00
13867;BME280;7003;46.982;15.248;2024-03-08T05:37:02;97410.03;;;-0.08;100.00
13867;BME280;7003;46.982;15.248;2024-03-08T05:39:35;97413.47;;;-0.02;100.00
13867;BME280;7003;46.982;15.248;2024-03-08T05:42:12;97415.13;;;0.09;100.00
13867;BME280;7003;46.982;15.248;2024-03-08T05:44:45;97413.03;;;0.11;100.00
13867;BME280;7003;46.982;15.248;2024-03-08T05:47:17;97403.38;;;0.12;100.00
13867;BME280;7003;46.982;15.248;2024-03-08T05:49:50;97410.31;;;-0.04;100.00
13867;BME280;7003;46.982;15.248;2024-03-08T05:52:33;97410.34;;;0.01;100.00
13867;BME280;7003;46.982;15.248;2024-03-08T05:55:03;97413.47;;;-0.02;100.00
13867;BME280;7003;46.982;15.248;2024-03-08T05:57:36;97414.03;;;0.00;100.00
13867;BME280;7003;46.982;15.248;2024-03-08T06:00:11;97410.97;;;0.13;100.00
13867;BME280;7003;46.982;15.248;2024-03-08T06:02:43;97415.50;;;0.23;100.00
13867;BME280;7003;46.982;15.248;2024-03-08T06:05:16;97416.91;;;0.41;100.00
13867;BME280;7003;46.982;15.248;2024-03-08T06:07:50;97413.81;;;0.49;100.00
13867;BME280;7003;46.982;15.248;2024-03-08T06:10:24;97408.06;;;0.52;100.00
13867;BME280;7003;46.982;15.248;2024-03-08T06:12:58;97414.19;;;0.67;100.00
13867;BME280;7003;46.982;15.248;2024-03-08T06:15:33;97415.59;;;0.90;100.00
13867;BME280;7003;46.982;15.248;2024-03-08T06:18:06;97418.25;;;1.05;100.00
13867;BME280;7003;46.982;15.248;2024-03-08T06:20:39;97414.09;;;1.14;100.00
13867;BME280;7003;46.982;15.248;2024-03-08T06:23:11;97415.16;;;1.19;100.00
13867;BME280;7003;46.982;15.248;2024-03-08T06:25:40;97419.09;;;1.26;100.00
13867;BME280;7003;46.982;15.248;2024-03-08T06:28:09;97418.09;;;1.42;100.00
13867;BME280;7003;46.982;15.248;2024-03-08T06:30:40;97432.53;;;1.45;100.00
13867;BME280;7003;46.982;15.248;2024-03-08T06:33:09;97434.41;;;1.70;100.00
13867;BME280;7003;46.982;15.248;2024-03-08T06:35:38;97424.72;;;1.90;100.00
13867;BME280;7003;46.982;15.248;2024-03-08T06:38:07;97429.44;;;2.14;100.00
13867;BME280;7003;46.982;15.248;2024-03-08T06:40:41;97431.53;;;2.22;100.00
13867;BME280;7003;46.982;15.248;2024-03-08T06:43:10;97435.97;;;2.21;100.00
13867;BME280;7003;46.982;15.248;2024-03-08T06:45:42;97432.06;;;2.14;100.00
13867;BME280;7003;46.982;15.248;2024-03-08T06:48:15;97424.66;;;2.41;100.00
13867;BME280;7003;46.982;15.248;2024-03-08T06:50:47;97427.22;;;2.71;100.00
13867;BME280;7003;46.982;15.248;2024-03-08T06:53:16;97430.31;;;2.94;100.00
13867;BME280;7003;46.982;15.248;2024-03-08T06:55:48;97428.19;;;3.01;100.00
13867;BME280;7003;46.982;15.248;2024-03-08T06:58:17;97429.78;;;2.92;100.00
13867;BME280;7003;46.982;15.248;2024-03-08T07:00:47;97430.53;;;3.07;100.00
13867;BME280;7003;46.982;15.248;2024-03-08T07:03:21;97429.66;;;3.22;100.00
13867;BME280;7003;46.982;15.248;2024-03-08T07:05:50;97433.34;;;3.21;100.00
13867;BME280;7003;46.982;15.248;2024-03-08T07:08:20;97429.56;;;3.42;100.00
13867;BME280;7003;46.982;15.248;2024-03-08T07:10:51;97426.44;;;3.35;100.00
13867;BME280;7003;46.982;15.248;2024-03-08T07:13:21;97429.84;;;3.36;100.00
13867;BME280;7003;46.982;15.248;2024-03-08T07:15:50;97426.38;;;3.45;100.00
13867;BME280;7003;46.982;15.248;2024-03-08T07:18:19;97431.47;;;3.32;100.00
13867;BME280;7003;46.982;15.248;2024-03-08T07:20:48;97431.69;;;3.40;100.00
13867;BME280;7003;46.982;15.248;2024-03-08T07:23:17;97434.28;;;3.45;100.00
13867;BME280;7003;46.982;15.248;2024-03-08T07:26:17;97433.13;;;3.62;100.00
13867;BME280;7003;46.982;15.248;2024-03-08T07:28:47;97424.88;;;3.73;100.00
13867;BME280;7003;46.982;15.248;2024-03-08T07:31:17;97426.25;;;3.66;100.00
13867;BME280;7003;46.982;15.248;2024-03-08T07:33:57;97427.97;;;3.46;100.00
13867;BME280;7003;46.982;15.248;2024-03-08T07:36:25;97435.78;;;3.57;100.00
13867;BME280;7003;46.982;15.248;2024-03-08T07:38:53;97438.97;;;3.48;100.00
13867;BME280;7003;46.982;15.248;2024-03-08T07:41:25;97444.63;;;3.27;100.00
13867;BME280;7003;46.982;15.248;2024-03-08T07:43:57;97436.91;;;3.45;100.00
13867;BME280;7003;46.982;15.248;2024-03-08T07:46:25;97436.66;;;3.42;100.00
13867;BME280;7003;46.982;15.248;2024-03-08T07:48:53;97436.91;;;3.45;100.00
13867;BME280;7003;46.982;15.248;2024-03-08T07:51:21;97439.09;;;3.72;100.00
13867;BME280;7003;46.982;15.248;2024-03-08T07:53:49;97434.34;;;3.74;100.00
13867;BME280;7003;46.982;15.248;2024-03-08T07:56:17;97433.72;;;3.93;100.00
13867;BME280;7003;46.982;15.248;2024-03-08T07:58:46;97441.25;;;4.04;100.00
13867;BME280;7003;46.982;15.248;2024-03-08T08:01:17;97436.38;;;4.21;100.00
13867;BME280;7003;46.982;15.248;2024-03-08T08:03:46;97442.19;;;4.18;100.00
13867;BME280;7003;46.982;15.248;2024-03-08T08:06:16;97444.22;;;4.26;100.00
13867;BME280;7003;46.982;15.248;2024-03-08T08:08:47;97442.47;;;3.83;100.00
13867;BME280;7003;46.982;15.248;2024-03-08T08:11:18;97446.59;;;3.94;100.00
13867;BME280;7003;46.982;15.248;2024-03-08T08:13:48;97439.50;;;3.90;100.00
13867;BME280;7003;46.982;15.248;2024-03-08T08:16:16;97441.81;;;4.01;100.00
13867;BME280;7003;46.982;15.248;2024-03-08T08:18:45;97442.28;;;4.08;100.00
13867;BME280;7003;46.982;15.248;2024-03-08T08:21:14;97440.06;;;3.86;100.00
13867;BME280;7003;46.982;15.248;2024-03-08T08:23:42;97443.38;;;4.02;100.00
13867;BME280;7003;46.982;15.248;2024-03-08T08:26:12;97441.72;;;3.28;100.00
13867;BME280;7003;46.982;15.248;2024-03-08T08:28:43;97445.97;;;3.19;100.00
13867;BME280;7003;46.982;15.248;2024-03-08T08:31:13;97444.44;;;3.08;100.00
13867;BME280;7003;46.982;15.248;2024-03-08T08:33:41;97445.75;;;3.05;100.00
13867;BME280;7003;46.982;15.248;2024-03-08T08:36:10;97448.13;;;3.07;100.00
13867;BME280;7003;46.982;15.248;2024-03-08T08:38:39;97449.09;;;3.26;100.00
13867;BME280;7003;46.982;15.248;2024-03-08T08:41:09;97451.53;;;3.02;100.00
13867;BME280;7003;46.982;15.248;2024-03-08T08:43:40;97445.25;;;3.08;100.00
13867;BME280;7003;46.982;15.248;2024-03-08T08:46:10;97442.72;;;3.37;100.00
13867;BME280;7003;46.982;15.248;2024-03-08T08:48:40;97441.03;;;3.62;100.00
13867;BME280;7003;46.982;15.248;2024-03-08T08:51:10;97440.84;;;3.43;100.00
13867;BME280;7003;46.982;15.248;2024-03-08T08:53:39;97435.41;;;3.73;100.00
13867;BME280;7003;46.982;15.248;2024-03-08T08:56:09;97434.09;;;3.76;100.00
13867;BME280;7003;46.982;15.248;2024-03-08T08:58:40;97442.81;;;3.71;100.00
13867;BME280;7003;46.982;15.248;2024-03-08T09:01:09;97433.03;;;4.11;100.00
13867;BME280;7003;46.982;15.248;2024-03-08T09:03:37;97432.97;;;4.97;100.00
13867;BME280;7003;46.982;15.248;2024-03-08T09:06:10;97426.84;;;5.45;100.00
13867;BME280;7003;46.982;15.248;2024-03-08T09:08:39;97426.59;;;6.16;100.00
13867;BME280;7003;46.982;15.248;2024-03-08T09:11:07;97423.75;;;6.58;100.00
13867;BME280;7003;46.982;15.248;2024-03-08T09:13:39;97418.44;;;6.45;100.00
13867;BME280;7003;46.982;15.248;2024-03-08T09:16:07;97421.63;;;6.88;100.00
13867;BME280;7003;46.982;15.248;2024-03-08T09:18:37;97414.28;;;7.62;100.00
13867;BME280;7003;46.982;15.248;2024-03-08T09:21:05;97411.16;;;7.82;100.00
13867;BME280;7003;46.982;15.248;2024-03-08T09:23:40;97418.69;;;6.62;100.00
13867;BME280;7003;46.982;15.248;2024-03-08T09:26:10;97411.97;;;6.05;100.00
13867;BME280;7003;46.982;15.248;2024-03-08T09:28:39;97405.91;;;6.37;100.00
13867;BME280;7003;46.982;15.248;2024-03-08T09:31:10;97409.88;;;6.94;100.00
13867;BME280;7003;46.982;15.248;2024-03-08T09:33:38;97406.81;;;7.64;100.00
13867;BME280;7003;46.982;15.248;2024-03-08T09:36:07;97400.38;;;8.45;100.00
13867;BME280;7003;46.982;15.248;2024-03-08T09:38:38;97406.53;;;8.32;100.00
13867;BME280;7003;46.982;15.248;2024-03-08T09:41:09;97411.28;;;8.22;100.00
13867;BME280;7003;46.982;15.248;2024-03-08T09:43:38;97402.47;;;7.68;100.00
13867;BME280;7003;46.982;15.248;2024-03-08T09:46:09;97407.50;;;7.06;100.00
13867;BME280;7003;46.982;15.248;2024-03-08T09:48:38;97409.56;;;6.54;100.00
13867;BME280;7003;46.982;15.248;2024-03-08T09:51:07;97411.06;;;6.28;100.00
13867;BME280;7003;46.982;15.248;2024-03-08T09:53:41;97409.34;;;6.37;100.00
13867;BME280;7003;46.982;15.248;2024-03-08T09:56:10;97404.53;;;6.26;100.00
13867;BME280;7003;46.982;15.248;2024-03-08T09:58:40;97406.75;;;6.78;100.00
13867;BME280;7003;46.982;15.248;2024-03-08T10:01:32;97410.19;;;6.79;100.00
13867;BME280;7003;46.982;15.248;2024-03-08T10:04:02;97410.47;;;6.77;100.00
13867;BME280;7003;46.982;15.248;2024-03-08T10:06:33;97404.44;;;6.31;100.00
13867;BME280;7003;46.982;15.248;2024-03-08T10:09:05;97409.16;;;6.47;100.00
13867;BME280;7003;46.982;15.248;2024-03-08T10:11:35;97408.50;;;6.55;100.00
13867;BME280;7003;46.982;15.248;2024-03-08T10:14:07;97410.31;;;5.95;100.00
13867;BME280;7003;46.982;15.248;2024-03-08T10:16:39;97406.91;;;6.41;100.00
13867;BME280;7003;46.982;15.248;2024-03-08T10:19:08;97405.34;;;6.53;100.00
13867;BME280;7003;46.982;15.248;2024-03-08T10:21:48;97404.28;;;6.82;100.00
13867;BME280;7003;46.982;15.248;2024-03-08T10:24:20;97406.53;;;7.16;100.00
13867;BME280;7003;46.982;15.248;2024-03-08T10:26:53;97404.56;;;7.21;100.00
13867;BME280;7003;46.982;15.248;2024-03-08T10:29:24;97399.63;;;7.28;100.00
13867;BME280;7003;46.982;15.248;2024-03-08T10:31:52;97396.59;;;7.71;100.00
13867;BME280;7003;46.982;15.248;2024-03-08T10:34:25;97388.84;;;7.39;100.00
13867;BME280;7003;46.982;15.248;2024-03-08T10:37:00;97391.31;;;7.71;100.00
13867;BME280;7003;46.982;15.248;2024-03-08T10:39:35;97382.50;;;7.84;100.00
13867;BME280;7003;46.982;15.248;2024-03-08T10:42:04;97388.47;;;7.31;100.00
13867;BME280;7003;46.982;15.248;2024-03-08T10:44:42;97373.34;;;7.68;100.00
13867;BME280;7003;46.982;15.248;2024-03-08T10:47:18;97375.03;;;8.31;100.00
13867;BME280;7003;46.982;15.248;2024-03-08T10:49:55;97372.19;;;8.27;100.00
13867;BME280;7003;46.982;15.248;2024-03-08T10:52:30;97371.56;;;8.30;100.00
13867;BME280;7003;46.982;15.248;2024-03-08T10:55:01;97369.59;;;8.75;100.00
13867;BME280;7003;46.982;15.248;2024-03-08T10:57:39;97370.88;;;8.78;100.00
13867;BME280;7003;46.982;15.248;2024-03-08T11:00:12;97369.94;;;8.74;98.57
13867;BME280;7003;46.982;15.248;2024-03-08T11:02:46;97377.81;;;8.03;90.95
13867;BME280;7003;46.982;15.248;2024-03-08T11:05:36;97367.19;;;8.48;95.75
13867;BME280;7003;46.982;15.248;2024-03-08T11:08:15;97358.66;;;9.25;93.25
13867;BME280;7003;46.982;15.248;2024-03-08T11:10:50;97353.38;;;9.42;87.16
13867;BME280;7003;46.982;15.248;2024-03-08T11:13:33;97354.53;;;10.22;89.64
13867;BME280;7003;46.982;15.248;2024-03-08T11:16:07;97352.81;;;10.73;78.65
13867;BME280;7003;46.982;15.248;2024-03-08T11:18:38;97351.50;;;9.34;90.16
13867;BME280;7003;46.982;15.248;2024-03-08T11:21:09;97359.91;;;9.19;77.15
13867;BME280;7003;46.982;15.248;2024-03-08T11:23:39;97350.97;;;8.49;99.91
13867;BME280;7003;46.982;15.248;2024-03-08T11:26:19;97352.81;;;8.18;95.98
13867;BME280;7003;46.982;15.248;2024-03-08T11:28:50;97348.28;;;8.41;95.98
13867;BME280;7003;46.982;15.248;2024-03-08T11:31:25;97350.97;;;9.15;87.72
13867;BME280;7003;46.982;15.248;2024-03-08T11:33:54;97346.72;;;7.87;89.64
13867;BME280;7003;46.982;15.248;2024-03-08T11:36:24;97343.72;;;8.33;97.69
13867;BME280;7003;46.982;15.248;2024-03-08T11:38:57;97336.34;;;9.52;75.66
13867;BME280;7003;46.982;15.248;2024-03-08T11:41:34;97330.41;;;9.63;80.08
13867;BME280;7003;46.982;15.248;2024-03-08T11:44:05;97326.31;;;9.23;73.74
13867;BME280;7003;46.982;15.248;2024-03-08T11:46:37;97317.53;;;8.79;64.53
13867;BME280;7003;46.982;15.248;2024-03-08T11:49:10;97320.41;;;8.21;74.07
13867;BME280;7003;46.982;15.248;2024-03-08T11:51:41;97311.81;;;8.16;90.13
13867;BME280;7003;46.982;15.248;2024-03-08T11:54:13;97314.59;;;7.80;84.95
13867;BME280;7003;46.982;15.248;2024-03-08T11:56:46;97303.56;;;8.48;92.50
13867;BME280;7003;46.982;15.248;2024-03-08T11:59:16;97300.22;;;8.82;83.34
13867;BME280;7003;46.982;15.248;2024-03-08T12:01:58;97304.88;;;8.76;80.92
13867;BME280;7003;46.982;15.248;2024-03-08T12:04:28;97295.47;;;8.53;80.22
13867;BME280;7003;46.982;15.248;2024-03-08T12:06:59;97292.00;;;8.44;89.95
13867;BME280;7003;46.982;15.248;2024-03-08T12:09:28;97300.56;;;8.10;100.00
13867;BME280;7003;46.982;15.248;2024-03-08T12:11:58;97300.00;;;7.91;100.00
13867;BME280;7003;46.982;15.248;2024-03-08T12:14:28;97295.16;;;7.62;100.00
13867;BME280;7003;46.982;15.248;2024-03-08T12:16:58;97293.88;;;7.59;100.00
13867;BME280;7003;46.982;15.248;2024-03-08T12:19:28;97292.63;;;7.79;100.00
13867;BME280;7003;46.982;15.248;2024-03-08T12:21:57;97291.78;;;7.48;100.00
13867;BME280;7003;46.982;15.248;2024-03-08T12:24:25;97289.22;;;7.20;100.00
13867;BME280;7003;46.982;15.248;2024-03-08T12:26:55;97281.28;;;7.20;100.00
13867;BME280;7003;46.982;15.248;2024-03-08T12:29:28;97281.84;;;7.31;100.00
13867;BME280;7003;46.982;15.248;2024-03-08T12:31:59;97282.63;;;7.31;100.00
13867;BME280;7003;46.982;15.248;2024-03-08T12:34:28;97283.06;;;7.25;100.00
13867;BME280;7003;46.982;15.248;2024-03-08T12:36:58;97266.09;;;7.04;100.00
13867;BME280;7003;46.982;15.248;2024-03-08T12:39:27;97270.97;;;7.10;100.00
13867;BME280;7003;46.982;15.248;2024-03-08T12:41:55;97273.38;;;7.43;100.00
13867;BME280;7003;46.982;15.248;2024-03-08T12:44:26;97272.75;;;7.23;100.00
13867;BME280;7003;46.982;15.248;2024-03-08T12:46:57;97258.34;;;7.29;100.00
13867;BME280;7003;46.982;15.248;2024-03-08T12:49:27;97267.25;;;7.56;100.00
13867;BME280;7003;46.982;15.248;2024-03-08T12:51:57;97276.75;;;7.34;100.00
13867;BME280;7003;46.982;15.248;2024-03-08T12:54:34;97274.47;;;7.19;100.00
13867;BME280;7003;46.982;15.248;2024-03-08T12:57:03;97268.16;;;6.93;100.00
13867;BME280;7003;46.982;15.248;2024-03-08T12:59:34;97267.97;;;7.25;100.00
13867;BME280;7003;46.982;15.248;2024-03-08T13:02:09;97270.25;;;7.18;100.00
13867;BME280;7003;46.982;15.248;2024-03-08T13:04:42;97267.44;;;7.01;100.00
13867;BME280;7003;46.982;15.248;2024-03-08T13:07:10;97271.88;;;6.92;100.00
13867;BME280;7003;46.982;15.248;2024-03-08T13:09:43;97267.16;;;6.39;100.00
13867;BME280;7003;46.982;15.248;2024-03-08T13:12:12;97270.66;;;6.62;100.00
13867;BME280;7003;46.982;15.248;2024-03-08T13:14:41;97267.44;;;6.51;100.00
13867;BME280;7003;46.982;15.248;2024-03-08T13:17:10;97259.53;;;6.38;100.00
13867;BME280;7003;46.982;15.248;2024-03-08T13:19:39;97264.81;;;6.38;100.00